Snow/Ice From: 17-12-2017 10:00 Until: 18-12-2017 06:00 warning for: Snow/Ice Level: Yellow info button

Although rather usual in this region, locally or potentially dangerous phenomena are expected. (such as local winds, summer thunderstorms, rising streams or high waves) Be aware and pay attention to the latest weather updates, especially if you carry out activities exposed to weather or close to a stream or shoreline. 


Meteo18 Weather Cam more information Meteo18 Weather Cam


Thunder radar more information blitzortung!


warning for Snow/Ice more information rain snow radar


Visit our other weather sites:

Template documentation
and downloads

And another site



Weather Underground History page Text

Daily Summary for January 3, 2017 Units:  Metric    English   Both
« Previous Day
Next Day »
Daily Weekly Monthly Yearly Custom
  High: Low: Average:
Temperature: 0.5 °C -2.3 °C -1 °C
Dew Point: -0.2 °C -2.7 °C -1.8 °C
Humidity: 97 % 92 % 94 %
Wind Speed: 17.7 km/h 0.0 km/h 4.8 km/h
Wind Gust: 27.4 km/h - -
Wind:- - East
Pressure: 1031.4 hPa 1028.7 hPa -
Precipitation: 0.0 mm    
Historical Graphs
 
 
Tabular Data for January 3, 2017
Time Temperature Dew Point Pressure Wind Wind Speed Wind Gust Humidity Rainfall Rate (Hourly)
00:02 0.5 °C -0.2 °C 1028.7 hPa NE 9.7 km/h 25.7 km/h 95 % 0.3 mm
00:12 0.4 °C -0.3 °C 1028.7 hPa NNE 16.1 km/h 27.4 km/h 95 % 0.3 mm
00:17 0.4 °C -0.3 °C 1028.7 hPa ENE 4.8 km/h 22.5 km/h 95 % 0.3 mm
00:22 0.3 °C -0.4 °C 1028.7 hPa ENE 9.7 km/h 20.9 km/h 95 % 0.3 mm
00:27 0.3 °C -0.4 °C 1028.7 hPa ENE 3.2 km/h 19.3 km/h 95 % 0.3 mm
00:32 0.3 °C -0.4 °C 1028.7 hPa East 11.3 km/h 19.3 km/h 95 % 0.3 mm
00:37 0.2 °C -0.5 °C 1028.7 hPa NE 12.9 km/h 19.3 km/h 95 % 0.3 mm
00:42 0.2 °C -0.7 °C 1028.7 hPa NE 4.8 km/h 20.9 km/h 94 % 0.0 mm
00:47 0.1 °C -0.8 °C 1028.7 hPa NNE 8.0 km/h 20.9 km/h 94 % 0.0 mm
00:52 -0.1 °C -1.1 °C 1028.7 hPa NE 9.7 km/h 24.1 km/h 93 % 0.0 mm
00:57 -0.1 °C -1.1 °C 1028.7 hPa NNE 9.7 km/h 24.1 km/h 93 % 0.0 mm
01:02 -0.2 °C -1.3 °C 1028.7 hPa ENE 14.5 km/h 24.1 km/h 92 % 0.0 mm
01:12 -0.2 °C -1.3 °C 1029.0 hPa NE 8.0 km/h 24.1 km/h 92 % 0.0 mm
01:17 -0.2 °C -1.3 °C 1028.7 hPa NE 12.9 km/h 22.5 km/h 92 % 0.0 mm
01:22 -0.2 °C -1.2 °C 1028.7 hPa NNE 3.2 km/h 20.9 km/h 93 % 0.0 mm
01:27 -0.2 °C -1.2 °C 1028.7 hPa NNE 12.9 km/h 16.1 km/h 93 % 0.0 mm
01:32 -0.2 °C -1.2 °C 1028.7 hPa ENE 3.2 km/h 14.5 km/h 93 % 0.0 mm
01:37 -0.3 °C -1.3 °C 1029.0 hPa NE 6.4 km/h 14.5 km/h 93 % 0.0 mm
01:42 -0.3 °C -1.3 °C 1028.7 hPa NNE 6.4 km/h 16.1 km/h 93 % 0.0 mm
01:47 -0.3 °C -1.3 °C 1029.0 hPa NE 8.0 km/h 16.1 km/h 93 % 0.0 mm
01:52 -0.3 °C -1.3 °C 1029.0 hPa NE 8.0 km/h 17.7 km/h 93 % 0.0 mm
01:57 -0.3 °C -1.3 °C 1029.0 hPa NE 4.8 km/h 19.3 km/h 93 % 0.0 mm
02:02 -0.3 °C -1.3 °C 1028.7 hPa NE 4.8 km/h 19.3 km/h 93 % 0.0 mm
02:12 -0.3 °C -1.3 °C 1028.7 hPa NE 9.7 km/h 16.1 km/h 93 % 0.0 mm
02:17 -0.4 °C -1.4 °C 1028.7 hPa NE 3.2 km/h 16.1 km/h 93 % 0.0 mm
02:22 -0.4 °C -1.4 °C 1028.7 hPa NE 12.9 km/h 16.1 km/h 93 % 0.0 mm
02:32 -0.6 °C -1.7 °C 1028.7 hPa NNE 14.5 km/h 17.7 km/h 92 % 0.0 mm
02:37 -0.7 °C -1.8 °C 1029.0 hPa NE 1.6 km/h 20.9 km/h 92 % 0.0 mm
02:42 -0.7 °C -1.8 °C 1029.0 hPa NE 9.7 km/h 20.9 km/h 92 % 0.0 mm
02:47 -0.7 °C -1.8 °C 1029.0 hPa NE 8.0 km/h 17.7 km/h 92 % 0.0 mm
02:52 -0.7 °C -1.8 °C 1029.0 hPa NE 12.9 km/h 25.7 km/h 92 % 0.0 mm
02:57 -0.7 °C -1.8 °C 1029.0 hPa NNE 12.9 km/h 25.7 km/h 92 % 0.0 mm
03:02 -0.7 °C -1.8 °C 1029.0 hPa NNE 17.7 km/h 20.9 km/h 92 % 0.0 mm
03:07 -0.7 °C -1.8 °C 1029.3 hPa NNE 12.9 km/h 19.3 km/h 92 % 0.0 mm
03:12 -0.7 °C -1.8 °C 1029.0 hPa NNE 9.7 km/h 20.9 km/h 92 % 0.0 mm
03:17 -0.8 °C -1.9 °C 1029.0 hPa NE 11.3 km/h 20.9 km/h 92 % 0.0 mm
03:22 -0.8 °C -1.9 °C 1029.0 hPa NE 9.7 km/h 20.9 km/h 92 % 0.0 mm
03:27 -0.8 °C -1.9 °C 1029.0 hPa ENE 1.6 km/h 20.9 km/h 92 % 0.0 mm
03:32 -0.8 °C -1.9 °C 1029.0 hPa NNE 9.7 km/h 19.3 km/h 92 % 0.0 mm
03:37 -0.8 °C -1.9 °C 1029.0 hPa NNE 6.4 km/h 19.3 km/h 92 % 0.0 mm
03:42 -0.8 °C -1.8 °C 1029.3 hPa NNE 8.0 km/h 19.3 km/h 93 % 0.0 mm
03:47 -0.8 °C -1.8 °C 1029.3 hPa ENE 9.7 km/h 16.1 km/h 93 % 0.0 mm
03:52 -0.9 °C -1.9 °C 1029.3 hPa NE 11.3 km/h 19.3 km/h 93 % 0.0 mm
03:57 -0.8 °C -1.8 °C 1029.3 hPa NNE 8.0 km/h 19.3 km/h 93 % 0.0 mm
04:02 -0.9 °C -1.9 °C 1029.3 hPa NE 9.7 km/h 19.3 km/h 93 % 0.0 mm
04:12 -0.8 °C -1.8 °C 1029.3 hPa NE 6.4 km/h 22.5 km/h 93 % 0.0 mm
04:17 -0.9 °C -2.0 °C 1029.3 hPa NE 14.5 km/h 22.5 km/h 92 % 0.0 mm
04:22 -0.9 °C -1.9 °C 1029.3 hPa North 6.4 km/h 24.1 km/h 93 % 0.0 mm
04:27 -0.9 °C -1.9 °C 1029.3 hPa NNE 6.4 km/h 24.1 km/h 93 % 0.0 mm
04:32 -0.9 °C -1.9 °C 1029.3 hPa NW 8.0 km/h 17.7 km/h 93 % 0.0 mm
04:37 -0.9 °C -2.0 °C 1029.3 hPa NNE 8.0 km/h 17.7 km/h 92 % 0.0 mm
04:42 -1.0 °C -2.1 °C 1029.3 hPa NNE 9.7 km/h 19.3 km/h 92 % 0.0 mm
04:47 -1.1 °C -2.1 °C 1029.3 hPa NNE 4.8 km/h 19.3 km/h 93 % 0.0 mm
04:52 -1.1 °C -2.2 °C 1029.3 hPa NE 3.2 km/h 19.3 km/h 92 % 0.0 mm
04:57 -1.1 °C -2.1 °C 1029.3 hPa NNE 6.4 km/h 17.7 km/h 93 % 0.0 mm
05:02 -1.1 °C -2.1 °C 1029.3 hPa North 6.4 km/h 17.7 km/h 93 % 0.0 mm
05:07 -1.1 °C -2.1 °C 1029.3 hPa NNE 8.0 km/h 17.7 km/h 93 % 0.0 mm
05:12 -1.1 °C -2.1 °C 1029.3 hPa NE 9.7 km/h 16.1 km/h 93 % 0.0 mm
05:17 -1.1 °C -2.1 °C 1029.3 hPa NE 9.7 km/h 16.1 km/h 93 % 0.0 mm
05:22 -1.0 °C -2.0 °C 1029.3 hPa NE 6.4 km/h 16.1 km/h 93 % 0.0 mm
05:27 -1.0 °C -2.0 °C 1029.3 hPa ENE 3.2 km/h 12.9 km/h 93 % 0.0 mm
05:32 -1.0 °C -2.0 °C 1029.3 hPa North 3.2 km/h 14.5 km/h 93 % 0.0 mm
05:42 -1.1 °C -2.1 °C 1029.3 hPa NNE 3.2 km/h 17.7 km/h 93 % 0.0 mm
05:47 -1.1 °C -2.1 °C 1029.3 hPa NE 9.7 km/h 17.7 km/h 93 % 0.0 mm
05:52 -1.1 °C -2.1 °C 1029.3 hPa NNW 3.2 km/h 19.3 km/h 93 % 0.0 mm
05:57 -1.1 °C -2.1 °C 1029.3 hPa NNE 6.4 km/h 19.3 km/h 93 % 0.0 mm
06:02 -1.1 °C -2.1 °C 1029.3 hPa North 3.2 km/h 19.3 km/h 93 % 0.0 mm
06:12 -1.2 °C -2.2 °C 1029.3 hPa North 9.7 km/h 19.3 km/h 93 % 0.0 mm
06:17 -1.1 °C -2.1 °C 1029.3 hPa East 4.8 km/h 19.3 km/h 93 % 0.0 mm
06:22 -1.1 °C -2.1 °C 1029.3 hPa NE 8.0 km/h 19.3 km/h 93 % 0.0 mm
06:27 -1.1 °C -2.1 °C 1029.7 hPa NE 6.4 km/h 14.5 km/h 93 % 0.0 mm
06:32 -1.2 °C -2.2 °C 1029.7 hPa NE 14.5 km/h 17.7 km/h 93 % 0.0 mm
06:37 -1.2 °C -2.2 °C 1029.7 hPa NNE 16.1 km/h 20.9 km/h 93 % 0.0 mm
06:42 -1.2 °C -2.2 °C 1029.7 hPa NNE 11.3 km/h 20.9 km/h 93 % 0.0 mm
06:52 -1.3 °C -2.3 °C 1029.7 hPa NE 11.3 km/h 19.3 km/h 93 % 0.0 mm
06:57 -1.3 °C -2.3 °C 1029.7 hPa NNE 8.0 km/h 19.3 km/h 93 % 0.0 mm
07:02 -1.3 °C -2.3 °C 1029.7 hPa NNE 6.4 km/h 19.3 km/h 93 % 0.0 mm
07:12 -1.3 °C -2.1 °C 1029.7 hPa NNE 8.0 km/h 19.3 km/h 94 % 0.0 mm
07:17 -1.2 °C -2.0 °C 1029.7 hPa NE 11.3 km/h 17.7 km/h 94 % 0.0 mm
07:22 -1.3 °C -2.1 °C 1029.7 hPa ENE 4.8 km/h 17.7 km/h 94 % 0.0 mm
07:27 -1.2 °C -2.0 °C 1029.7 hPa NE 4.8 km/h 14.5 km/h 94 % 0.0 mm
07:32 -1.2 °C -2.0 °C 1029.7 hPa NNE 8.0 km/h 14.5 km/h 94 % 0.0 mm
07:37 -1.3 °C -2.1 °C 1030.0 hPa NNE 12.9 km/h 14.5 km/h 94 % 0.0 mm
07:42 -1.3 °C -2.1 °C 1030.0 hPa NE 1.6 km/h 14.5 km/h 94 % 0.0 mm
07:47 -1.3 °C -2.1 °C 1030.0 hPa NE 3.2 km/h 14.5 km/h 94 % 0.0 mm
07:52 -1.3 °C -2.1 °C 1030.0 hPa East 6.4 km/h 14.5 km/h 94 % 0.0 mm
07:57 -1.3 °C -2.1 °C 1030.0 hPa NNE 8.0 km/h 16.1 km/h 94 % 0.0 mm
08:02 -1.3 °C -2.1 °C 1030.0 hPa NNE 8.0 km/h 16.1 km/h 94 % 0.0 mm
08:12 -1.3 °C -2.0 °C 1030.0 hPa NE 4.8 km/h 14.5 km/h 95 % 0.0 mm
08:17 -1.3 °C -2.0 °C 1030.0 hPa North 1.6 km/h 14.5 km/h 95 % 0.0 mm
08:22 -1.4 °C -2.1 °C 1030.0 hPa NNE 4.8 km/h 17.7 km/h 95 % 0.0 mm
08:27 -1.4 °C -2.1 °C 1030.0 hPa NNE 4.8 km/h 17.7 km/h 95 % 0.0 mm
08:32 -1.4 °C -2.1 °C 1030.0 hPa NE 8.0 km/h 17.7 km/h 95 % 0.0 mm
08:42 -1.4 °C -2.1 °C 1030.4 hPa NE 3.2 km/h 12.9 km/h 95 % 0.0 mm
08:52 -1.5 °C -2.3 °C 1030.4 hPa NNW 4.8 km/h 20.9 km/h 94 % 0.0 mm
08:57 -1.6 °C -2.3 °C 1030.4 hPa ENE 14.5 km/h 20.9 km/h 95 % 0.0 mm
09:02 -1.6 °C -2.3 °C 1030.4 hPa NNE 4.8 km/h 20.9 km/h 95 % 0.0 mm
09:07 -1.6 °C -2.3 °C 1030.4 hPa North 12.9 km/h 17.7 km/h 95 % 0.0 mm
09:12 -1.6 °C -2.3 °C 1030.4 hPa NE 3.2 km/h 17.7 km/h 95 % 0.0 mm
09:17 -1.6 °C -2.3 °C 1030.4 hPa NE 8.0 km/h 19.3 km/h 95 % 0.0 mm
09:22 -1.6 °C -2.3 °C 1030.4 hPa NE 4.8 km/h 19.3 km/h 95 % 0.0 mm
09:27 -1.5 °C -2.2 °C 1030.4 hPa NE 11.3 km/h 19.3 km/h 95 % 0.0 mm
09:32 -1.5 °C -2.2 °C 1030.4 hPa ENE 3.2 km/h 16.1 km/h 95 % 0.0 mm
09:37 -1.4 °C -2.1 °C 1030.4 hPa NNW 3.2 km/h 12.9 km/h 95 % 0.0 mm
09:42 -1.4 °C -2.1 °C 1030.7 hPa NNE 3.2 km/h 12.9 km/h 95 % 0.0 mm
09:47 -1.4 °C -2.1 °C 1030.7 hPa Calm   9.7 km/h 95 % 0.0 mm
09:52 -1.4 °C -2.1 °C 1030.7 hPa NNE 4.8 km/h 9.7 km/h 95 % 0.0 mm
09:57 -1.3 °C -2.0 °C 1030.7 hPa NE 4.8 km/h 9.7 km/h 95 % 0.0 mm
10:02 -1.3 °C -2.0 °C 1030.7 hPa ESE 1.6 km/h 9.7 km/h 95 % 0.0 mm
10:07 -1.3 °C -2.0 °C 1031.0 hPa NE 8.0 km/h 12.9 km/h 95 % 0.0 mm
10:12 -1.3 °C -2.0 °C 1031.0 hPa Calm   12.9 km/h 95 % 0.0 mm
10:17 -1.3 °C -2.0 °C 1031.0 hPa NE 4.8 km/h 12.9 km/h 95 % 0.0 mm
10:22 -1.3 °C -2.0 °C 1031.0 hPa NNE 4.8 km/h 11.3 km/h 95 % 0.0 mm
10:27 -1.2 °C -1.9 °C 1031.0 hPa NNE 4.8 km/h 9.7 km/h 95 % 0.0 mm
10:32 -1.2 °C -1.9 °C 1031.0 hPa Calm   9.7 km/h 95 % 0.0 mm
10:42 -1.2 °C -1.9 °C 1030.7 hPa NNE 3.2 km/h 9.7 km/h 95 % 0.0 mm
10:47 -1.2 °C -1.9 °C 1030.7 hPa NNE 4.8 km/h 8.0 km/h 95 % 0.0 mm
10:52 -1.2 °C -1.9 °C 1031.0 hPa North 3.2 km/h 9.7 km/h 95 % 0.0 mm
10:57 -1.3 °C -2.0 °C 1031.0 hPa NE 6.4 km/h 12.9 km/h 95 % 0.0 mm
11:02 -1.2 °C -1.9 °C 1031.0 hPa Calm   14.5 km/h 95 % 0.0 mm
11:07 -1.3 °C -2.0 °C 1031.0 hPa NNE 6.4 km/h 14.5 km/h 95 % 0.0 mm
11:12 -1.3 °C -2.0 °C 1031.0 hPa NE 3.2 km/h 14.5 km/h 95 % 0.0 mm
11:22 -1.3 °C -2.0 °C 1031.0 hPa NW 1.6 km/h 12.9 km/h 95 % 0.0 mm
11:32 -1.2 °C -1.9 °C 1031.4 hPa NNW 4.8 km/h 12.9 km/h 95 % 0.0 mm
11:37 -1.2 °C -1.9 °C 1031.4 hPa Calm   11.3 km/h 95 % 0.0 mm
11:42 -1.2 °C -1.9 °C 1031.4 hPa NNE 6.4 km/h 9.7 km/h 95 % 0.0 mm
11:47 -1.2 °C -1.9 °C 1031.0 hPa NNE 1.6 km/h 12.9 km/h 95 % 0.0 mm
11:52 -1.1 °C -1.8 °C 1031.4 hPa NNE 4.8 km/h 12.9 km/h 95 % 0.0 mm
11:57 -1.1 °C -1.8 °C 1031.4 hPa NNE 6.4 km/h 12.9 km/h 95 % 0.0 mm
12:02 -1.1 °C -1.8 °C 1031.0 hPa WNW 1.6 km/h 11.3 km/h 95 % 0.0 mm
12:07 -1.0 °C -1.7 °C 1031.0 hPa North 3.2 km/h 11.3 km/h 95 % 0.0 mm
12:12 -1.0 °C -1.7 °C 1031.0 hPa NNW 4.8 km/h 9.7 km/h 95 % 0.0 mm
12:17 -1.0 °C -1.8 °C 1031.0 hPa NE 8.0 km/h 9.7 km/h 94 % 0.0 mm
12:22 -1.1 °C -1.9 °C 1031.0 hPa NE 3.2 km/h 9.7 km/h 94 % 0.0 mm
12:32 -1.0 °C -1.8 °C 1031.0 hPa ENE 3.2 km/h 12.9 km/h 94 % 0.0 mm
12:42 -0.9 °C -1.7 °C 1030.7 hPa NNE 1.6 km/h 11.3 km/h 94 % 0.0 mm
12:47 -0.8 °C -1.6 °C 1030.7 hPa NNE 3.2 km/h 8.0 km/h 94 % 0.0 mm
12:52 -0.8 °C -1.8 °C 1031.0 hPa NE 3.2 km/h 8.0 km/h 93 % 0.0 mm
12:57 -0.8 °C -1.8 °C 1031.0 hPa ENE 3.2 km/h 9.7 km/h 93 % 0.0 mm
13:02 -0.8 °C -1.8 °C 1031.0 hPa NE 3.2 km/h 9.7 km/h 93 % 0.0 mm
13:07 -0.7 °C -1.7 °C 1030.7 hPa NNE 3.2 km/h 8.0 km/h 93 % 0.0 mm
13:17 -0.6 °C -1.6 °C 1031.0 hPa NNE 4.8 km/h 9.7 km/h 93 % 0.0 mm
13:22 -0.7 °C -1.7 °C 1030.7 hPa North 4.8 km/h 11.3 km/h 93 % 0.0 mm
13:27 -0.6 °C -1.6 °C 1030.7 hPa NNW 6.4 km/h 11.3 km/h 93 % 0.0 mm
13:37 -0.4 °C -1.4 °C 1030.7 hPa NE 4.8 km/h 12.9 km/h 93 % 0.0 mm
13:42 -0.4 °C -1.4 °C 1030.7 hPa NE 6.4 km/h 11.3 km/h 93 % 0.0 mm
13:47 -0.4 °C -1.4 °C 1030.4 hPa NW 4.8 km/h 11.3 km/h 93 % 0.0 mm
13:52 -0.4 °C -1.4 °C 1030.4 hPa NNE 3.2 km/h 11.3 km/h 93 % 0.0 mm
13:57 -0.3 °C -1.3 °C 1030.4 hPa North 11.3 km/h 11.3 km/h 93 % 0.0 mm
14:02 -0.3 °C -1.4 °C 1030.7 hPa NE 1.6 km/h 12.9 km/h 92 % 0.0 mm
14:07 -0.3 °C -1.3 °C 1030.4 hPa NNE 6.4 km/h 12.9 km/h 93 % 0.0 mm
14:12 -0.2 °C -1.2 °C 1030.4 hPa NNE 3.2 km/h 12.9 km/h 93 % 0.0 mm
14:17 -0.1 °C -1.1 °C 1030.4 hPa NNW 4.8 km/h 9.7 km/h 93 % 0.0 mm
14:22 -0.2 °C -1.3 °C 1030.4 hPa North 4.8 km/h 9.7 km/h 92 % 0.0 mm
14:27 -0.2 °C -1.3 °C 1030.4 hPa NW 4.8 km/h 9.7 km/h 92 % 0.0 mm
14:32 -0.3 °C -1.3 °C 1030.4 hPa NNE 8.0 km/h 11.3 km/h 93 % 0.0 mm
14:37 -0.2 °C -1.2 °C 1030.4 hPa NNE 4.8 km/h 11.3 km/h 93 % 0.0 mm
14:42 -0.2 °C -1.2 °C 1030.4 hPa NNW 3.2 km/h 11.3 km/h 93 % 0.0 mm
14:47 -0.2 °C -1.2 °C 1030.4 hPa North 1.6 km/h 11.3 km/h 93 % 0.0 mm
14:52 -0.1 °C -1.1 °C 1030.4 hPa Calm   11.3 km/h 93 % 0.0 mm
14:57 -0.1 °C -1.2 °C 1030.4 hPa NW 3.2 km/h 11.3 km/h 92 % 0.0 mm
15:02 -0.2 °C -1.3 °C 1030.4 hPa NE 3.2 km/h 8.0 km/h 92 % 0.0 mm
15:12 -0.2 °C -1.3 °C 1030.4 hPa NE 6.4 km/h 8.0 km/h 92 % 0.0 mm
15:17 -0.3 °C -1.4 °C 1030.4 hPa NNE 1.6 km/h 9.7 km/h 92 % 0.0 mm
15:22 -0.3 °C -1.4 °C 1030.4 hPa Calm   9.7 km/h 92 % 0.0 mm
15:27 -0.3 °C -1.4 °C 1030.4 hPa ENE 4.8 km/h 9.7 km/h 92 % 0.0 mm
15:32 -0.3 °C -1.4 °C 1030.4 hPa ENE 3.2 km/h 6.4 km/h 92 % 0.0 mm
15:37 -0.4 °C -1.5 °C 1030.4 hPa Calm   6.4 km/h 92 % 0.0 mm
15:42 -0.3 °C -1.3 °C 1030.7 hPa ENE 1.6 km/h 6.4 km/h 93 % 0.0 mm
15:47 -0.3 °C -1.4 °C 1030.7 hPa NNE 1.6 km/h 6.4 km/h 92 % 0.0 mm
15:52 -0.3 °C -1.4 °C 1030.7 hPa NNE 1.6 km/h 4.8 km/h 92 % 0.0 mm
15:57 -0.3 °C -1.3 °C 1030.7 hPa North 3.2 km/h 4.8 km/h 93 % 0.0 mm
16:02 -0.3 °C -1.3 °C 1030.7 hPa NNW 4.8 km/h 8.0 km/h 93 % 0.0 mm
16:07 -0.3 °C -1.3 °C 1030.7 hPa NNE 3.2 km/h 8.0 km/h 93 % 0.0 mm
16:12 -0.3 °C -1.3 °C 1030.7 hPa NNE 3.2 km/h 8.0 km/h 93 % 0.0 mm
16:17 -0.4 °C -1.4 °C 1030.4 hPa NNW 1.6 km/h 6.4 km/h 93 % 0.0 mm
16:22 -0.4 °C -1.4 °C 1030.4 hPa NNE 1.6 km/h 6.4 km/h 93 % 0.0 mm
16:27 -0.4 °C -1.4 °C 1030.4 hPa Calm   6.4 km/h 93 % 0.0 mm
16:32 -0.4 °C -1.4 °C 1030.4 hPa WNW 1.6 km/h 4.8 km/h 93 % 0.0 mm
16:37 -0.5 °C -1.5 °C 1030.4 hPa NW 1.6 km/h 4.8 km/h 93 % 0.0 mm
16:42 -0.5 °C -1.5 °C 1030.4 hPa NNE 1.6 km/h 3.2 km/h 93 % 0.0 mm
16:47 -0.5 °C -1.5 °C 1030.4 hPa NE 6.4 km/h 8.0 km/h 93 % 0.0 mm
16:52 -0.6 °C -1.6 °C 1030.4 hPa Calm   8.0 km/h 93 % 0.0 mm
16:57 -0.7 °C -1.7 °C 1030.4 hPa Calm   8.0 km/h 93 % 0.0 mm
17:07 -0.7 °C -1.7 °C 1030.4 hPa Calm   4.8 km/h 93 % 0.0 mm
17:12 -0.7 °C -1.7 °C 1030.4 hPa NE 1.6 km/h 4.8 km/h 93 % 0.0 mm
17:17 -0.8 °C -1.8 °C 1030.4 hPa NW 1.6 km/h 4.8 km/h 93 % 0.0 mm
17:27 -0.8 °C -1.6 °C 1030.0 hPa Calm   3.2 km/h 94 % 0.0 mm
17:37 -0.8 °C -1.6 °C 1030.0 hPa North 3.2 km/h 6.4 km/h 94 % 0.0 mm
17:47 -0.9 °C -1.7 °C 1030.4 hPa Calm   6.4 km/h 94 % 0.0 mm
17:52 -0.8 °C -1.6 °C 1030.4 hPa NNE 1.6 km/h 6.4 km/h 94 % 0.0 mm
18:02 -0.8 °C -1.5 °C 1030.4 hPa NNW 4.8 km/h 6.4 km/h 95 % 0.0 mm
18:07 -0.8 °C -1.5 °C 1030.4 hPa Calm   8.0 km/h 95 % 0.0 mm
18:12 -0.9 °C -1.7 °C 1030.4 hPa North 3.2 km/h 8.0 km/h 94 % 0.0 mm
18:22 -1.1 °C -1.9 °C 1030.4 hPa NW 1.6 km/h 9.7 km/h 94 % 0.0 mm
18:32 -1.2 °C -1.9 °C 1030.4 hPa Calm   3.2 km/h 95 % 0.0 mm
18:37 -1.2 °C -1.9 °C 1030.4 hPa Calm   3.2 km/h 95 % 0.0 mm
18:47 -1.2 °C -1.9 °C 1030.4 hPa Calm   1.6 km/h 95 % 0.0 mm
18:52 -1.2 °C -1.9 °C 1030.4 hPa Calm   1.6 km/h 95 % 0.0 mm
18:57 -1.1 °C -1.8 °C 1030.7 hPa Calm   1.6 km/h 95 % 0.0 mm
19:02 -1.2 °C -1.9 °C 1030.7 hPa NNW 1.6 km/h 4.8 km/h 95 % 0.0 mm
19:07 -1.2 °C -1.9 °C 1030.7 hPa NNW 1.6 km/h 4.8 km/h 95 % 0.0 mm
19:12 -1.2 °C -1.9 °C 1031.0 hPa ENE 4.8 km/h 9.7 km/h 95 % 0.0 mm
19:17 -1.3 °C -2.0 °C 1030.7 hPa North 4.8 km/h 9.7 km/h 95 % 0.0 mm
19:22 -1.4 °C -2.1 °C 1030.7 hPa NE 4.8 km/h 9.7 km/h 95 % 0.0 mm
19:27 -1.4 °C -2.1 °C 1031.0 hPa NE 1.6 km/h 8.0 km/h 95 % 0.0 mm
19:32 -1.5 °C -2.1 °C 1031.0 hPa Calm   6.4 km/h 96 % 0.0 mm
19:42 -1.4 °C -2.0 °C 1031.0 hPa Calm   4.8 km/h 96 % 0.0 mm
19:47 -1.4 °C -2.0 °C 1031.0 hPa ESE 1.6 km/h 4.8 km/h 96 % 0.0 mm
19:52 -1.5 °C -2.1 °C 1030.7 hPa Calm   4.8 km/h 96 % 0.0 mm
19:57 -1.5 °C -2.1 °C 1031.0 hPa Calm   4.8 km/h 96 % 0.0 mm
20:02 -1.4 °C -2.0 °C 1031.0 hPa Calm   1.6 km/h 96 % 0.0 mm
20:07 -1.5 °C -2.1 °C 1031.0 hPa Calm   3.2 km/h 96 % 0.0 mm
20:12 -1.6 °C -2.2 °C 1030.7 hPa Calm   3.2 km/h 96 % 0.0 mm
20:17 -1.6 °C -2.2 °C 1030.7 hPa Calm   1.6 km/h 96 % 0.0 mm
20:27 -1.6 °C -2.2 °C 1030.7 hPa Calm   1.6 km/h 96 % 0.0 mm
20:32 -1.6 °C -2.2 °C 1031.0 hPa Calm   1.6 km/h 96 % 0.0 mm
20:42 -1.6 °C -2.2 °C 1031.0 hPa Calm   1.6 km/h 96 % 0.0 mm
20:47 -1.6 °C -2.2 °C 1031.0 hPa Calm     96 % 0.0 mm
20:52 -1.6 °C -2.2 °C 1031.0 hPa Calm   1.6 km/h 96 % 0.0 mm
21:02 -1.7 °C -2.3 °C 1031.0 hPa Calm   1.6 km/h 96 % 0.0 mm
21:12 -1.7 °C -2.1 °C 1031.0 hPa Calm   1.6 km/h 97 % 0.0 mm
21:17 -1.7 °C -2.1 °C 1031.0 hPa Calm   3.2 km/h 97 % 0.0 mm
21:27 -1.7 °C -2.1 °C 1030.7 hPa Calm   3.2 km/h 97 % 0.0 mm
21:32 -1.8 °C -2.2 °C 1030.7 hPa Calm   3.2 km/h 97 % 0.0 mm
21:37 -1.8 °C -2.2 °C 1030.7 hPa Calm   3.2 km/h 97 % 0.0 mm
21:42 -1.8 °C -2.2 °C 1030.7 hPa Calm     97 % 0.0 mm
21:47 -1.8 °C -2.2 °C 1030.7 hPa Calm     97 % 0.0 mm
21:52 -1.8 °C -2.2 °C 1030.7 hPa SSW 1.6 km/h 3.2 km/h 97 % 0.0 mm
21:57 -1.9 °C -2.3 °C 1030.7 hPa Calm   4.8 km/h 97 % 0.0 mm
22:02 -1.9 °C -2.3 °C 1030.7 hPa SSW 1.6 km/h 4.8 km/h 97 % 0.0 mm
22:12 -1.9 °C -2.3 °C 1030.7 hPa Calm   3.2 km/h 97 % 0.0 mm
22:17 -1.9 °C -2.3 °C 1030.7 hPa Calm   3.2 km/h 97 % 0.0 mm
22:27 -1.9 °C -2.3 °C 1030.7 hPa Calm   4.8 km/h 97 % 0.0 mm
22:32 -1.9 °C -2.3 °C 1030.7 hPa Calm   4.8 km/h 97 % 0.0 mm
22:42 -1.9 °C -2.3 °C 1030.7 hPa South 3.2 km/h 4.8 km/h 97 % 0.0 mm
22:47 -1.9 °C -2.3 °C 1030.4 hPa SSW 4.8 km/h 6.4 km/h 97 % 0.0 mm
22:52 -1.9 °C -2.3 °C 1030.4 hPa SW 1.6 km/h 11.3 km/h 97 % 0.0 mm
23:02 -2.0 °C -2.4 °C 1030.4 hPa SW 4.8 km/h 11.3 km/h 97 % 0.0 mm
23:12 -2.1 °C -2.5 °C 1030.4 hPa SSW 4.8 km/h 9.7 km/h 97 % 0.0 mm
23:17 -2.1 °C -2.5 °C 1030.4 hPa SW 3.2 km/h 8.0 km/h 97 % 0.0 mm
23:22 -2.1 °C -2.5 °C 1030.4 hPa SW 1.6 km/h 8.0 km/h 97 % 0.0 mm
23:27 -2.1 °C -2.5 °C 1030.4 hPa SW 6.4 km/h 9.7 km/h 97 % 0.0 mm
23:37 -2.1 °C -2.5 °C 1030.4 hPa SSW 3.2 km/h 9.7 km/h 97 % 0.0 mm
23:42 -2.1 °C -2.5 °C 1030.4 hPa SW 6.4 km/h 12.9 km/h 97 % 0.0 mm
23:47 -2.2 °C -2.6 °C 1030.4 hPa SW 4.8 km/h 12.9 km/h 97 % 0.0 mm
23:52 -2.3 °C -2.7 °C 1030.4 hPa WSW 4.8 km/h 12.9 km/h 97 % 0.0 mm
23:57 -2.3 °C -2.7 °C 1030.4 hPa SW 1.6 km/h 12.9 km/h 97 % 0.0 mm
Meteo18
Compliments of Weather Underground - 4 mb

Script developed by  Jim McMurry - jmcmurry@mwt.net Adapted for the template by  Wim van der Kuil - Leuven-Template.eu

You find our weather info also at:

European Weather Network

Weather Underground

Equipment we use:

Weather-station
Davis Vue

Weather-program
Meteohub

Weather-server
Raspberry PI 2 B+

Provider
1 and 1

Davis Vue

Meteohub

Raspberry PI 2 B+

1 and 1